Time;durP1;ratioP1;P1;durP2;ratioP2;P2;SDS_P1;SDS_P2;PMS_P1;PMS_P2;Temp;Humidity;BMP_temperature;BMP_pressure;BME280_temperature;BME280_humidity;BME280_pressure;Samples;Min_cycle;Max_cycle;Signal;HPM_P1;HPM_P2
2023/01/12 00:01:21;;;;;;;9.90;1.95;;;8.60;99.90;;;;;;4855584;29;20049;-70
2023/01/12 00:03:48;;;;;;;15.70;2.42;;;8.60;99.90;;;;;;4857398;29;20045;-69
2023/01/12 00:06:14;;;;;;;9.25;2.03;;;8.70;99.90;;;;;;4844268;29;20446;-75
2023/01/12 00:08:40;;;;;;;13.95;2.58;;;8.80;99.90;;;;;;4860406;29;20045;-75
2023/01/12 00:11:06;;;;;;;13.52;2.83;;;9.00;99.90;;;;;;4860339;29;20498;-75
2023/01/12 00:13:32;;;;;;;16.80;2.50;;;9.20;99.90;;;;;;4860243;29;20124;-75
2023/01/12 00:18:46;;;;;;;11.63;2.42;;;9.30;99.90;;;;;;4857814;29;20041;-75
2023/01/12 00:21:13;;;;;;;25.20;3.25;;;9.40;99.90;;;;;;4859611;29;20124;-75
2023/01/12 00:23:38;;;;;;;;;;;9.40;99.90;;;;;;4859738;29;20051;-75
2023/01/12 00:26:07;;;;;;;15.40;2.55;;;9.40;99.90;;;;;;4859727;29;19919;-75
2023/01/12 00:28:37;;;;;;;19.90;2.85;;;9.40;99.90;;;;;;4859249;29;20041;-75
2023/01/12 00:31:09;;;;;;;16.35;3.15;;;9.40;99.90;;;;;;4845891;29;20038;-75
2023/01/12 00:33:38;;;;;;;17.65;3.15;;;9.40;99.90;;;;;;4859226;29;20093;-75
2023/01/12 00:36:06;;;;;;;16.75;2.80;;;9.40;99.90;;;;;;4859452;29;20049;-75
2023/01/12 00:38:34;;;;;;;24.25;3.33;;;9.50;99.90;;;;;;4859973;29;20041;-75
2023/01/12 00:41:08;;;;;;;16.70;3.08;;;9.50;99.90;;;;;;4858922;29;20074;-69
2023/01/12 00:46:27;;;;;;;16.63;3.83;;;9.50;99.90;;;;;;4857550;29;20474;-69
2023/01/12 00:48:53;;;;;;;21.90;3.40;;;9.50;99.90;;;;;;4859352;29;20058;-70
2023/01/12 00:51:21;;;;;;;20.40;3.40;;;9.50;99.90;;;;;;4858690;29;20049;-70
2023/01/12 00:53:47;;;;;;;17.55;3.30;;;9.50;99.90;;;;;;4843903;29;20422;-70
2023/01/12 00:56:13;;;;;;;18.15;3.25;;;9.50;99.90;;;;;;4858848;29;20048;-76
2023/01/12 00:58:39;;;;;;;22.20;3.70;;;9.40;99.90;;;;;;4844163;29;20090;-75
2023/01/12 01:01:08;;;;;;;20.83;3.10;;;9.40;99.90;;;;;;4859142;29;20128;-76
2023/01/12 01:03:35;;;;;;;19.40;4.00;;;9.40;99.90;;;;;;4859297;29;20045;-75
2023/01/12 01:06:05;;;;;;;22.45;3.75;;;9.40;99.90;;;;;;4860003;29;20181;-75
2023/01/12 01:08:34;;;;;;;16.67;2.85;;;9.40;99.90;;;;;;4843272;29;20072;-75
2023/01/12 01:11:09;;;;;;;16.75;3.10;;;9.40;99.90;;;;;;4842914;29;20044;-77
2023/01/12 01:13:35;;;;;;;19.23;2.95;;;9.40;99.90;;;;;;4858458;29;20124;-70
2023/01/12 01:16:03;;;;;;;16.23;3.08;;;9.30;99.90;;;;;;4857542;29;20049;-69
2023/01/12 01:18:30;;;;;;;15.07;2.60;;;9.30;99.90;;;;;;4858188;29;20044;-69
2023/01/12 01:20:56;;;;;;;18.13;2.67;;;9.30;99.90;;;;;;4856224;29;20142;-68
2023/01/12 01:23:24;;;;;;;14.27;2.97;;;9.20;99.90;;;;;;4858113;29;20111;-69
2023/01/12 01:25:50;;;;;;;15.05;2.85;;;9.30;99.90;;;;;;4857744;29;20150;-69
2023/01/12 01:28:16;;;;;;;17.85;2.70;;;9.20;99.90;;;;;;4842264;29;20276;-68
2023/01/12 01:30:42;;;;;;;15.07;2.78;;;9.20;99.90;;;;;;4842237;29;20048;-68
2023/01/12 01:33:08;;;;;;;;;;;9.30;99.90;;;;;;4842693;29;20120;-68
2023/01/12 01:35:37;;;;;;;18.40;3.10;;;9.20;99.90;;;;;;4858051;29;20064;-69
2023/01/12 01:38:04;;;;;;;16.25;3.35;;;9.20;99.90;;;;;;4858440;29;20110;-75
2023/01/12 01:40:30;;;;;;;;;;;9.20;99.90;;;;;;4859235;29;20038;-75
2023/01/12 01:42:56;;;;;;;19.85;3.08;;;9.20;99.90;;;;;;4858390;29;19920;-75
2023/01/12 01:45:22;;;;;;;15.13;3.33;;;9.20;99.90;;;;;;4859111;29;20053;-75
2023/01/12 01:47:56;;;;;;;17.83;2.90;;;9.20;99.90;;;;;;4843219;29;20490;-75
2023/01/12 01:50:33;;;;;;;14.73;3.00;;;9.30;99.90;;;;;;4848731;29;20128;-75
2023/01/12 01:53:03;;;;;;;;;;;9.30;99.90;;;;;;4858238;29;20053;-75
2023/01/12 01:55:36;;;;;;;16.35;3.35;;;9.30;99.90;;;;;;4858228;29;19987;-75
2023/01/12 01:58:03;;;;;;;14.27;2.80;;;9.40;99.90;;;;;;4849476;29;20052;-75
2023/01/12 02:00:29;;;;;;;14.20;3.03;;;9.40;99.90;;;;;;4855435;29;20041;-75
2023/01/12 02:02:56;;;;;;;15.93;2.45;;;9.40;99.90;;;;;;4856637;29;20041;-75
2023/01/12 02:05:26;;;;;;;17.30;3.08;;;9.40;99.90;;;;;;4839969;29;20042;-75
2023/01/12 02:07:52;;;;;;;17.27;3.75;;;9.40;99.90;;;;;;4857118;29;20060;-75
2023/01/12 02:10:21;;;;;;;17.45;3.22;;;9.50;99.90;;;;;;4856319;29;20092;-75
2023/01/12 02:18:57;;;;;;;19.67;2.78;;;9.50;99.90;;;;;;4856039;29;20045;-75
2023/01/12 02:21:49;;;;;;;16.45;2.75;;;9.50;99.90;;;;;;4872685;29;20053;-75
2023/01/12 02:24:27;;;;;;;17.52;3.30;;;9.50;99.90;;;;;;4847931;29;20046;-75
2023/01/12 02:27:24;;;;;;;14.95;3.03;;;9.60;99.90;;;;;;4857239;29;20108;-75
2023/01/12 02:29:59;;;;;;;20.65;3.22;;;9.70;99.90;;;;;;4850685;29;20045;-75
2023/01/12 02:32:27;;;;;;;18.38;3.45;;;9.70;99.90;;;;;;4855513;29;20061;-75
2023/01/12 02:35:23;;;;;;;17.27;3.33;;;9.70;99.90;;;;;;4857235;29;20125;-75
2023/01/12 02:38:12;;;;;;;18.92;3.95;;;9.70;99.90;;;;;;4856018;29;20128;-74
2023/01/12 02:40:51;;;;;;;14.15;3.10;;;9.80;99.90;;;;;;4851424;29;20136;-74
2023/01/12 02:43:22;;;;;;;14.38;3.28;;;9.80;99.90;;;;;;4855864;29;20129;-75
2023/01/12 02:45:57;;;;;;;23.05;4.05;;;9.80;99.90;;;;;;4855717;29;20129;-74
2023/01/12 02:48:46;;;;;;;20.50;4.07;;;9.90;99.90;;;;;;4857827;29;20041;-74
2023/01/12 02:51:31;;;;;;;18.02;3.55;;;10.00;99.90;;;;;;4849912;29;20056;-73
2023/01/12 02:54:05;;;;;;;20.63;3.22;;;10.00;99.90;;;;;;4854026;29;20064;-74
2023/01/12 02:56:59;;;;;;;13.02;2.92;;;10.00;99.90;;;;;;4856164;29;20048;-74
2023/01/12 02:59:30;;;;;;;21.75;3.53;;;10.00;99.90;;;;;;4856992;29;20048;-74
2023/01/12 03:02:09;;;;;;;15.23;2.53;;;10.10;99.90;;;;;;4855286;29;20056;-75
2023/01/12 03:04:35;;;;;;;12.55;3.10;;;10.10;99.90;;;;;;4855132;29;20080;-74
2023/01/12 03:07:01;;;;;;;13.32;3.00;;;10.10;99.90;;;;;;4855619;29;20065;-74
2023/01/12 03:09:40;;;;;;;12.77;2.63;;;10.20;99.90;;;;;;4838891;29;20082;-75
2023/01/12 03:12:11;;;;;;;20.50;3.53;;;10.30;99.90;;;;;;4852995;29;20164;-68
2023/01/12 03:14:41;;;;;;;18.27;3.15;;;10.30;99.90;;;;;;4855861;29;20041;-68
2023/01/12 03:17:14;;;;;;;13.23;2.95;;;10.40;99.90;;;;;;4855162;29;20033;-68
2023/01/12 03:19:43;;;;;;;14.55;2.92;;;10.40;99.90;;;;;;4854445;29;20085;-69
2023/01/12 03:22:12;;;;;;;17.80;2.88;;;10.50;99.90;;;;;;4854242;29;20041;-69
2023/01/12 03:24:45;;;;;;;12.88;2.78;;;10.50;99.90;;;;;;4853383;29;20049;-69
2023/01/12 03:27:21;;;;;;;19.50;3.50;;;10.50;99.90;;;;;;4854237;29;20050;-68
2023/01/12 03:29:58;;;;;;;11.77;2.88;;;10.60;99.90;;;;;;4853928;29;20042;-68
2023/01/12 03:32:24;;;;;;;19.52;3.42;;;10.70;99.90;;;;;;4853771;29;20064;-68
2023/01/12 03:34:50;;;;;;;15.57;3.10;;;10.70;99.90;;;;;;4855185;29;20522;-69
2023/01/12 03:37:36;;;;;;;15.45;3.13;;;10.80;99.90;;;;;;4839845;29;20132;-69
2023/01/12 03:40:10;;;;;;;16.92;3.42;;;10.80;99.90;;;;;;4854134;29;20049;-69
2023/01/12 03:42:45;;;;;;;17.17;2.90;;;10.90;99.90;;;;;;4854746;29;20494;-69
2023/01/12 03:45:17;;;;;;;14.80;3.05;;;10.80;99.90;;;;;;4847173;29;20544;-75
2023/01/12 03:47:43;;;;;;;14.10;3.20;;;10.90;99.90;;;;;;4856148;29;20049;-74
2023/01/12 03:50:11;;;;;;;16.02;3.00;;;11.10;99.90;;;;;;4856606;29;20041;-75
2023/01/12 03:52:39;;;;;;;10.27;2.33;;;11.10;99.90;;;;;;4853902;29;20045;-74
2023/01/12 03:55:09;;;;;;;15.00;2.80;;;11.00;99.90;;;;;;4856926;29;20161;-74
2023/01/12 03:57:37;;;;;;;15.60;2.30;;;11.20;99.90;;;;;;4855810;29;20041;-75
2023/01/12 04:00:07;;;;;;;14.88;2.88;;;11.10;99.90;;;;;;4839484;29;20041;-74
2023/01/12 04:02:33;;;;;;;15.60;2.67;;;11.20;99.90;;;;;;4852804;29;20176;-69
2023/01/12 04:04:59;;;;;;;16.15;2.90;;;11.20;99.90;;;;;;4852699;29;20106;-69
2023/01/12 04:07:25;;;;;;;17.80;3.38;;;11.30;99.90;;;;;;4854825;29;20061;-69
2023/01/12 04:09:50;;;;;;;15.25;2.88;;;11.20;99.90;;;;;;4819914;29;20055;-68
2023/01/12 04:12:16;;;;;;;13.40;2.80;;;11.30;99.90;;;;;;4838795;29;20132;-68
2023/01/12 04:14:43;;;;;;;13.80;2.67;;;11.40;99.90;;;;;;4855867;29;20038;-68
2023/01/12 04:17:14;;;;;;;14.45;2.83;;;11.20;99.90;;;;;;4856021;29;20052;-68
2023/01/12 04:19:40;;;;;;;15.57;2.97;;;11.30;99.90;;;;;;4853232;29;20132;-68
2023/01/12 04:24:51;;;;;;;15.05;3.00;;;11.20;99.90;;;;;;4853774;29;20057;-67
2023/01/12 04:27:18;;;;;;;10.82;2.55;;;11.30;99.90;;;;;;4856115;29;20050;-68
2023/01/12 04:29:43;;;;;;;;;;;11.20;99.90;;;;;;4854949;29;20165;-67
2023/01/12 04:32:10;;;;;;;15.82;2.70;;;11.30;99.90;;;;;;4852795;29;20160;-67
2023/01/12 04:34:35;;;;;;;;;;;11.10;99.90;;;;;;4855806;29;20044;-67
2023/01/12 04:37:02;;;;;;;9.45;2.10;;;11.30;99.90;;;;;;4854373;29;19924;-67
2023/01/12 04:39:28;;;;;;;13.50;2.67;;;11.20;99.90;;;;;;4838295;29;20177;-74
2023/01/12 04:41:54;;;;;;;8.75;2.10;;;11.10;99.90;;;;;;4854043;29;20144;-74
2023/01/12 04:44:19;;;;;;;9.27;1.92;;;11.10;99.90;;;;;;4856315;29;20048;-74
2023/01/12 04:46:48;;;;;;;7.30;1.90;;;11.20;99.90;;;;;;4855584;29;20045;-74
2023/01/12 04:49:14;;;;;;;6.25;1.38;;;11.20;99.90;;;;;;4840822;29;20549;-74
2023/01/12 04:51:39;;;;;;;7.65;1.73;;;11.10;99.90;;;;;;4857188;29;20041;-74
2023/01/12 04:54:05;;;;;;;6.13;1.63;;;11.00;99.90;;;;;;4859515;29;20128;-74
2023/01/12 04:56:31;;;;;;;9.57;1.73;;;10.80;99.90;;;;;;4860159;29;20047;-74
2023/01/12 04:59:00;;;;;;;7.05;1.58;;;10.80;99.90;;;;;;4859049;29;20080;-74
2023/01/12 05:01:31;;;;;;;6.93;1.40;;;10.90;99.90;;;;;;4858750;29;20068;-74
2023/01/12 05:03:59;;;;;;;7.20;1.48;;;10.90;99.90;;;;;;4857772;29;20053;-74
2023/01/12 05:06:26;;;;;;;6.10;1.60;;;10.90;99.90;;;;;;4843871;29;20722;-74
2023/01/12 05:11:36;;;;;;;6.75;1.75;;;10.90;99.90;;;;;;4844630;29;20774;-74
2023/01/12 05:14:03;;;;;;;5.63;1.45;;;10.70;99.90;;;;;;4858021;29;20050;-74
2023/01/12 05:16:28;;;;;;;4.63;1.25;;;10.90;99.90;;;;;;4857550;29;20046;-68
2023/01/12 05:18:54;;;;;;;5.38;1.10;;;10.70;99.90;;;;;;4858511;29;20056;-68
2023/01/12 05:21:22;;;;;;;6.57;1.42;;;10.90;99.90;;;;;;4826629;29;20081;-67
2023/01/12 05:23:50;;;;;;;5.78;1.20;;;10.80;99.90;;;;;;4857485;29;20060;-68
2023/01/12 05:26:15;;;;;;;4.85;1.33;;;10.70;99.90;;;;;;4858390;29;20053;-68
2023/01/12 05:28:41;;;;;;;7.28;1.23;;;10.80;99.90;;;;;;4857702;29;20493;-67
2023/01/12 05:31:10;;;;;;;3.42;1.20;;;10.90;99.90;;;;;;4853492;29;20420;-68
2023/01/12 05:33:38;;;;;;;4.10;1.30;;;10.90;99.90;;;;;;4861148;29;20041;-68
2023/01/12 05:36:10;;;;;;;5.00;1.20;;;11.00;99.90;;;;;;4856040;29;20188;-67
2023/01/12 05:38:35;;;;;;;4.10;1.27;;;11.00;99.90;;;;;;4871290;29;20050;-68
2023/01/12 05:41:03;;;;;;;5.05;1.70;;;10.90;99.90;;;;;;4858825;29;20052;-68
2023/01/12 05:46:14;;;;;;;5.32;1.20;;;10.80;99.90;;;;;;4839831;29;20053;-67
2023/01/12 05:48:40;;;;;;;5.43;1.05;;;10.80;99.90;;;;;;4855330;29;20125;-67
2023/01/12 05:51:07;;;;;;;4.72;1.23;;;11.00;99.90;;;;;;4853985;29;20056;-68
2023/01/12 05:53:33;;;;;;;3.00;1.17;;;11.00;99.90;;;;;;4856351;29;20583;-67
2023/01/12 05:56:18;;;;;;;4.60;1.30;;;11.10;99.90;;;;;;4855589;29;20126;-75
2023/01/12 05:59:03;;;;;;;2.53;0.90;;;10.80;99.90;;;;;;4857131;29;20049;-75
2023/01/12 06:01:32;;;;;;;3.25;0.80;;;11.20;99.90;;;;;;4853908;29;20081;-74
2023/01/12 06:04:02;;;;;;;2.63;1.13;;;11.00;99.90;;;;;;4851336;29;20049;-69
2023/01/12 06:06:30;;;;;;;2.85;0.80;;;11.20;99.90;;;;;;4851584;29;20132;-70
2023/01/12 06:08:56;;;;;;;2.65;0.82;;;11.20;99.90;;;;;;4853590;29;20057;-69
2023/01/12 06:14:08;;;;;;;3.25;0.75;;;11.10;99.90;;;;;;4855337;29;20366;-68
2023/01/12 06:16:37;;;;;;;1.33;0.68;;;11.40;99.90;;;;;;4841955;29;20259;-70
2023/01/12 06:19:03;;;;;;;4.15;0.80;;;11.50;99.90;;;;;;4840700;29;20072;-69
2023/01/12 06:21:31;;;;;;;2.00;0.77;;;11.50;99.90;;;;;;4853183;29;20136;-70
2023/01/12 06:23:57;;;;;;;3.72;0.90;;;11.50;99.90;;;;;;4854859;29;20053;-76
2023/01/12 06:26:23;;;;;;;1.75;0.70;;;11.50;99.90;;;;;;4843703;29;20467;-75
2023/01/12 06:28:49;;;;;;;1.30;0.60;;;11.60;99.90;;;;;;4852563;29;20053;-75
2023/01/12 06:31:15;;;;;;;2.90;0.80;;;11.70;99.90;;;;;;4853510;29;20073;-76
2023/01/12 06:33:41;;;;;;;2.40;0.73;;;11.70;99.90;;;;;;4835780;29;20098;-71
2023/01/12 06:36:07;;;;;;;1.58;0.60;;;11.40;99.90;;;;;;4856964;29;20038;-71
2023/01/12 06:38:35;;;;;;;2.47;0.60;;;11.70;99.90;;;;;;4852504;29;20073;-71
2023/01/12 06:41:02;;;;;;;0.82;0.40;;;11.80;99.90;;;;;;4838929;29;20042;-71
2023/01/12 06:43:28;;;;;;;1.08;0.50;;;11.90;99.90;;;;;;4852505;29;20401;-71
2023/01/12 06:45:54;;;;;;;0.98;0.70;;;12.00;99.90;;;;;;4853390;29;20046;-70
2023/01/12 06:48:22;;;;;;;1.48;0.55;;;11.70;99.90;;;;;;4842986;29;20057;-71
2023/01/12 06:51:00;;;;;;;0.30;0.30;;;12.10;99.90;;;;;;4854932;29;20045;-70
2023/01/12 06:53:26;;;;;;;1.27;0.50;;;11.80;99.90;;;;;;4838529;29;20120;-71
2023/01/12 06:55:52;;;;;;;1.35;0.47;;;12.20;99.90;;;;;;4855248;29;20558;-71
2023/01/12 06:58:20;;;;;;;0.88;0.45;;;12.20;99.90;;;;;;4855167;29;20086;-71
2023/01/12 07:00:46;;;;;;;1.45;0.70;;;12.40;99.90;;;;;;4838942;29;20049;-71
2023/01/12 07:03:16;;;;;;;3.58;0.80;;;12.50;99.90;;;;;;4839882;29;20056;-72
2023/01/12 07:05:42;;;;;;;2.33;0.93;;;12.60;99.90;;;;;;4853505;29;20046;-72
2023/01/12 07:08:09;;;;;;;1.85;1.10;;;12.30;99.90;;;;;;4855237;29;20081;-72
2023/01/12 07:10:36;;;;;;;3.10;1.25;;;12.70;99.90;;;;;;4838328;29;20053;-70
2023/01/12 07:13:02;;;;;;;;;;;12.90;99.90;;;;;;4835463;29;20057;-71
2023/01/12 07:15:28;;;;;;;6.90;1.85;;;12.70;99.90;;;;;;4854786;29;19955;-70
2023/01/12 07:17:57;;;;;;;3.67;1.33;;;12.50;99.90;;;;;;4854762;29;20124;-70
2023/01/12 07:20:23;;;;;;;4.03;1.40;;;13.20;99.90;;;;;;4852890;29;20044;-69
2023/01/12 07:22:49;;;;;;;7.78;1.80;;;12.70;99.90;;;;;;4854571;29;20049;-69
2023/01/12 07:25:15;;;;;;;7.38;1.73;;;13.00;99.90;;;;;;4853784;29;20172;-69
2023/01/12 07:28:07;;;;;;;9.10;2.33;;;13.20;99.90;;;;;;4842110;29;20398;-69
2023/01/12 07:30:34;;;;;;;6.35;1.52;;;13.60;99.90;;;;;;4837774;29;20141;-70
2023/01/12 07:33:11;;;;;;;8.52;1.85;;;13.60;99.90;;;;;;4855164;29;20529;-70
2023/01/12 07:35:37;;;;;;;8.73;1.60;;;13.80;99.90;;;;;;4855489;29;20049;-70
2023/01/12 07:38:03;;;;;;;8.68;1.77;;;13.80;99.90;;;;;;4856721;29;20042;-69
2023/01/12 07:40:28;;;;;;;11.05;2.13;;;13.60;99.90;;;;;;4841741;29;20037;-70
2023/01/12 07:43:02;;;;;;;9.50;1.70;;;13.30;99.90;;;;;;4857594;29;20498;-70
2023/01/12 07:45:29;;;;;;;11.45;2.10;;;13.70;99.90;;;;;;4857364;29;20057;-69
2023/01/12 07:47:55;;;;;;;15.57;3.28;;;13.70;99.90;;;;;;4841316;29;20168;-70
2023/01/12 07:50:22;;;;;;;9.02;2.15;;;14.10;99.90;;;;;;4841571;29;20056;-70
2023/01/12 07:52:48;;;;;;;7.28;2.08;;;13.90;99.90;;;;;;4826527;29;20064;-70
2023/01/12 07:55:20;;;;;;;10.20;2.58;;;13.50;99.90;;;;;;4826270;29;20053;-69
2023/01/12 07:57:57;;;;;;;15.52;2.70;;;14.40;99.90;;;;;;4857072;29;20046;-70
2023/01/12 08:00:24;;;;;;;16.13;2.92;;;14.20;99.90;;;;;;4857012;29;20052;-70
2023/01/12 08:02:51;;;;;;;12.75;2.50;;;13.80;99.90;;;;;;4856931;29;20050;-70
2023/01/12 08:05:20;;;;;;;15.18;3.10;;;14.20;99.90;;;;;;4841438;29;20050;-70
2023/01/12 08:07:46;;;;;;;16.95;2.78;;;14.70;99.90;;;;;;4856765;29;20065;-70
2023/01/12 08:10:13;;;;;;;15.90;3.15;;;14.70;99.90;;;;;;4856973;29;20132;-70
2023/01/12 08:12:40;;;;;;;15.52;2.92;;;13.90;99.90;;;;;;4856936;29;20132;-70
2023/01/12 08:15:07;;;;;;;13.85;2.53;;;14.70;99.90;;;;;;4858204;29;20535;-69
2023/01/12 08:17:39;;;;;;;13.65;2.70;;;14.00;99.90;;;;;;4856754;29;20130;-69
2023/01/12 08:20:18;;;;;;;20.38;3.05;;;15.00;99.90;;;;;;4856961;29;20045;-69
2023/01/12 08:22:48;;;;;;;16.17;3.08;;;14.30;99.90;;;;;;4856977;29;20060;-69
2023/01/12 08:25:33;;;;;;;18.98;2.53;;;14.40;99.90;;;;;;4859417;29;20057;-69
2023/01/12 08:28:04;;;;;;;16.42;3.53;;;15.00;99.90;;;;;;4860580;29;20053;-69
2023/01/12 08:30:30;;;;;;;12.50;2.63;;;14.30;99.90;;;;;;4860495;29;20405;-69
2023/01/12 08:32:58;;;;;;;14.38;2.60;;;14.70;99.90;;;;;;4861835;29;20525;-69
2023/01/12 08:35:27;;;;;;;14.57;2.92;;;14.40;99.90;;;;;;4860389;29;20080;-69
2023/01/12 08:37:54;;;;;;;16.60;2.40;;;15.00;99.90;;;;;;4860244;29;20056;-69
2023/01/12 08:40:20;;;;;;;12.80;2.47;;;15.10;99.90;;;;;;4860463;29;20144;-69
2023/01/12 08:42:46;;;;;;;14.55;2.60;;;14.80;99.90;;;;;;4861468;29;20487;-69
2023/01/12 08:45:12;;;;;;;15.13;2.72;;;14.50;99.90;;;;;;4844766;29;20508;-68
2023/01/12 08:47:39;;;;;;;13.02;2.70;;;15.10;99.90;;;;;;4860168;29;20129;-70
2023/01/12 08:50:07;;;;;;;12.88;2.33;;;15.10;99.90;;;;;;4844616;29;20071;-70
2023/01/12 08:52:34;;;;;;;16.27;3.05;;;14.80;99.90;;;;;;4860028;29;20128;-70
2023/01/12 08:55:00;;;;;;;14.75;2.45;;;14.60;99.90;;;;;;4859893;29;20057;-70
2023/01/12 08:57:25;;;;;;;12.85;2.65;;;14.50;99.90;;;;;;4859850;29;20359;-69
2023/01/12 08:59:51;;;;;;;16.10;2.47;;;15.20;99.90;;;;;;4860043;29;20077;-69
2023/01/12 09:02:17;;;;;;;12.65;2.58;;;14.80;99.90;;;;;;4829160;29;20429;-68
2023/01/12 09:04:43;;;;;;;15.43;2.47;;;14.80;99.90;;;;;;4844577;29;20109;-69
2023/01/12 09:07:09;;;;;;;8.85;2.13;;;14.50;99.90;;;;;;4844292;29;20070;-69
2023/01/12 09:09:35;;;;;;;13.75;2.55;;;14.70;99.90;;;;;;4859922;29;20080;-69
2023/01/12 09:12:01;;;;;;;14.45;2.38;;;14.40;99.90;;;;;;4844203;29;20050;-70
2023/01/12 09:14:28;;;;;;;10.30;1.85;;;14.50;99.90;;;;;;4861293;29;20041;-69
2023/01/12 09:16:55;;;;;;;12.15;2.40;;;14.60;99.90;;;;;;4859887;29;20565;-69
2023/01/12 09:19:21;;;;;;;15.63;2.78;;;14.90;99.90;;;;;;4844087;29;20049;-70
2023/01/12 09:21:47;;;;;;;11.98;2.50;;;15.10;99.90;;;;;;4859702;29;20045;-70
2023/01/12 09:24:14;;;;;;;11.35;2.22;;;14.60;99.90;;;;;;4844190;29;20060;-69
2023/01/12 09:26:44;;;;;;;13.32;2.47;;;14.40;99.90;;;;;;4859469;29;20045;-70
2023/01/12 09:29:11;;;;;;;9.43;1.80;;;14.40;99.90;;;;;;4859603;29;20113;-70
2023/01/12 09:31:40;;;;;;;18.15;2.83;;;14.90;99.90;;;;;;4859251;29;20088;-70
2023/01/12 09:34:06;;;;;;;12.85;2.45;;;15.10;99.90;;;;;;4859181;29;20042;-70
2023/01/12 09:36:34;;;;;;;14.55;2.17;;;15.10;99.90;;;;;;4858555;29;20060;-69
2023/01/12 09:39:00;;;;;;;17.75;3.13;;;14.40;99.90;;;;;;4859424;29;20042;-70
2023/01/12 09:47:38;;;;;;;13.52;2.35;;;15.00;99.90;;;;;;4859053;29;20570;-71
2023/01/12 09:50:15;;;;;;;16.85;2.92;;;14.60;99.90;;;;;;4858675;29;20049;-70
2023/01/12 09:52:56;;;;;;;17.35;2.88;;;14.60;99.90;;;;;;4858789;29;20054;-70
2023/01/12 09:55:24;;;;;;;11.55;2.42;;;14.90;99.90;;;;;;4858366;29;20076;-70
2023/01/12 09:58:05;;;;;;;9.80;2.05;;;15.10;99.90;;;;;;4858970;29;20045;-70
2023/01/12 10:00:31;;;;;;;11.57;1.98;;;15.10;99.90;;;;;;4843032;29;20049;-70
2023/01/12 10:03:03;;;;;;;12.15;2.45;;;14.60;99.90;;;;;;4858782;29;20053;-70
2023/01/12 10:05:54;;;;;;;11.20;2.20;;;15.00;99.90;;;;;;4843367;29;20050;-70
2023/01/12 10:08:36;;;;;;;12.68;2.60;;;14.70;99.90;;;;;;4858449;29;20127;-70
2023/01/12 10:11:27;;;;;;;13.20;2.22;;;14.40;99.90;;;;;;4843527;29;20072;-70
2023/01/12 10:14:19;;;;;;;11.88;2.15;;;14.60;99.90;;;;;;4859214;29;20386;-70
2023/01/12 10:17:06;;;;;;;10.05;1.90;;;14.70;99.90;;;;;;4843403;29;20053;-70
2023/01/12 10:19:54;;;;;;;14.88;2.40;;;14.60;99.90;;;;;;4858609;29;20086;-70
2023/01/12 10:22:36;;;;;;;14.02;2.58;;;14.50;99.90;;;;;;4858500;29;20474;-71
2023/01/12 10:25:03;;;;;;;13.90;2.58;;;14.50;99.90;;;;;;4858484;29;20049;-70
2023/01/12 10:27:31;;;;;;;13.45;2.28;;;14.60;99.90;;;;;;4858555;29;20049;-70
2023/01/12 10:29:57;;;;;;;12.15;2.33;;;14.20;99.90;;;;;;4843845;29;20128;-76
2023/01/12 10:32:26;;;;;;;9.30;1.63;;;14.30;99.90;;;;;;4860369;29;20049;-77
2023/01/12 10:34:52;;;;;;;12.00;2.60;;;14.50;99.90;;;;;;4859300;29;20117;-76
2023/01/12 10:37:18;;;;;;;16.42;2.53;;;14.30;99.90;;;;;;4859532;29;20060;-75
2023/01/12 10:39:44;;;;;;;12.15;2.63;;;14.30;99.90;;;;;;4844232;29;20073;-76
2023/01/12 10:45:22;;;;;;;12.18;2.30;;;14.40;99.90;;;;;;4859171;29;20136;-77
2023/01/12 10:47:53;;;;;;;11.63;2.10;;;14.20;99.90;;;;;;4858786;29;20068;-75
2023/01/12 10:50:34;;;;;;;9.10;1.90;;;14.30;99.90;;;;;;4859109;29;20061;-75
2023/01/12 10:53:10;;;;;;;11.80;2.38;;;14.10;99.90;;;;;;4843666;29;20053;-77
2023/01/12 10:55:39;;;;;;;11.77;2.35;;;14.00;99.90;;;;;;4858951;29;20167;-76
2023/01/12 10:58:21;;;;;;;10.52;2.33;;;14.00;99.90;;;;;;4842969;29;20041;-75
2023/01/12 11:00:48;;;;;;;11.25;2.25;;;13.90;99.90;;;;;;4858765;29;20056;-75
2023/01/12 11:03:39;;;;;;;13.65;2.47;;;14.00;99.90;;;;;;4858251;29;20043;-75
2023/01/12 11:06:26;;;;;;;12.02;2.20;;;13.70;99.90;;;;;;4843596;29;20091;-75
2023/01/12 11:08:53;;;;;;;9.73;2.03;;;13.60;99.90;;;;;;4843733;29;20413;-76
2023/01/12 11:11:28;;;;;;;9.13;2.10;;;13.80;99.90;;;;;;4843528;29;20502;-76
2023/01/12 11:14:02;;;;;;;13.70;2.35;;;13.70;99.90;;;;;;4843614;29;20136;-76
2023/01/12 11:16:35;;;;;;;10.63;2.05;;;13.80;99.90;;;;;;4859363;29;20185;-75
2023/01/12 11:19:15;;;;;;;13.70;2.88;;;13.80;99.90;;;;;;4858981;29;20375;-75
2023/01/12 11:21:49;;;;;;;13.88;2.45;;;13.90;99.90;;;;;;4858998;29;20166;-76
2023/01/12 11:24:40;;;;;;;12.30;2.58;;;13.80;99.90;;;;;;4830253;29;20058;-75
2023/01/12 11:27:44;;;;;;;11.27;2.35;;;13.80;99.90;;;;;;4840536;29;20598;-75
2023/01/12 11:30:22;;;;;;;11.75;2.60;;;13.80;99.90;;;;;;4840500;29;20049;-76
2023/01/12 11:33:07;;;;;;;15.95;2.50;;;14.00;99.90;;;;;;4839427;29;20049;-77
2023/01/12 11:35:39;;;;;;;14.52;2.58;;;14.00;99.90;;;;;;4867617;29;20049;-76
2023/01/12 11:38:12;;;;;;;12.85;2.65;;;13.90;99.90;;;;;;4858753;29;20406;-77
2023/01/12 11:40:40;;;;;;;18.33;2.45;;;13.80;99.90;;;;;;4858544;29;20049;-77
2023/01/12 11:43:49;;;;;;;15.30;2.53;;;13.80;99.90;;;;;;4858393;29;20065;-77
2023/01/12 11:46:39;;;;;;;11.45;2.00;;;13.60;99.90;;;;;;4873755;29;20573;-77
2023/01/12 11:49:40;;;;;;;9.90;2.60;;;13.50;99.90;;;;;;4858428;29;20060;-78
2023/01/12 11:52:12;;;;;;;16.83;3.05;;;13.40;99.90;;;;;;4873641;29;20060;-77
2023/01/12 11:54:39;;;;;;;14.75;2.42;;;13.50;99.90;;;;;;4871673;29;20073;-75
2023/01/12 11:57:31;;;;;;;12.88;2.35;;;13.40;99.90;;;;;;4858447;29;20057;-76
2023/01/12 12:00:28;;;;;;;14.60;2.47;;;13.50;99.90;;;;;;4862905;29;20056;-75
2023/01/12 12:03:28;;;;;;;11.38;2.70;;;13.40;99.90;;;;;;4863966;29;20405;-76
2023/01/12 12:06:16;;;;;;;11.35;2.20;;;13.30;99.90;;;;;;4848934;29;20056;-75
2023/01/12 12:09:03;;;;;;;12.48;1.98;;;13.50;99.90;;;;;;4864541;29;20065;-76
2023/01/12 12:11:31;;;;;;;10.40;2.10;;;13.40;99.90;;;;;;4864976;29;20081;-75
2023/01/12 12:14:28;;;;;;;11.27;1.98;;;13.30;99.90;;;;;;4863698;29;20132;-76
2023/01/12 12:17:06;;;;;;;10.30;2.15;;;13.10;99.90;;;;;;4863489;29;20053;-76
2023/01/12 12:19:47;;;;;;;10.45;2.10;;;13.10;99.90;;;;;;4864265;29;20378;-77
2023/01/12 12:22:37;;;;;;;14.90;2.67;;;13.10;99.90;;;;;;4849145;29;20084;-76
2023/01/12 12:25:22;;;;;;;13.60;2.00;;;13.00;99.90;;;;;;4858207;29;20053;-76
2023/01/12 12:27:59;;;;;;;10.80;2.22;;;13.00;99.90;;;;;;4859187;29;20528;-76
2023/01/12 12:30:52;;;;;;;11.55;2.55;;;13.00;99.90;;;;;;4863764;29;20185;-76
2023/01/12 12:34:08;;;;;;;12.57;2.30;;;13.00;99.90;;;;;;4862291;29;20053;-76
2023/01/12 12:37:16;;;;;;;12.52;2.05;;;13.00;99.90;;;;;;4839139;29;20089;-76
2023/01/12 12:39:52;;;;;;;5.60;1.40;;;13.00;99.90;;;;;;4771666;30;20059;-75
2023/01/12 12:45:42;;;;;;;10.40;1.90;;;12.70;99.90;;;;;;4861101;29;20176;-76
2023/01/12 12:48:14;;;;;;;8.48;1.67;;;12.60;99.90;;;;;;4860012;29;20045;-76
2023/01/12 12:51:01;;;;;;;9.30;1.88;;;12.50;99.90;;;;;;4862746;29;20049;-76
2023/01/12 12:53:36;;;;;;;8.45;1.70;;;12.60;99.90;;;;;;4863205;29;20497;-75
2023/01/12 12:56:13;;;;;;;11.68;1.75;;;12.80;99.90;;;;;;4863153;29;20065;-75
2023/01/12 12:58:40;;;;;;;16.65;2.20;;;12.80;99.90;;;;;;4864394;29;20460;-75
2023/01/12 13:01:23;;;;;;;14.95;2.72;;;12.90;99.90;;;;;;4863654;29;20528;-75
2023/01/12 13:04:00;;;;;;;12.73;2.50;;;12.90;99.90;;;;;;4848103;29;20133;-75
2023/01/12 13:06:32;;;;;;;11.15;2.25;;;13.00;99.90;;;;;;4863632;29;20053;-76
2023/01/12 13:09:01;;;;;;;13.85;2.33;;;13.10;99.90;;;;;;4863694;29;20164;-75
2023/01/12 13:11:45;;;;;;;10.57;2.17;;;13.10;99.90;;;;;;4861148;29;20053;-75
2023/01/12 13:14:41;;;;;;;17.08;2.95;;;13.00;99.90;;;;;;4860789;29;20042;-75
2023/01/12 13:17:19;;;;;;;13.07;2.47;;;13.00;99.90;;;;;;4842650;29;20092;-76
2023/01/12 13:20:01;;;;;;;12.27;2.50;;;12.90;99.90;;;;;;4867590;29;20134;-75
2023/01/12 13:22:38;;;;;;;12.63;2.58;;;13.00;99.90;;;;;;4860579;29;20053;-75
2023/01/12 13:25:18;;;;;;;18.75;3.15;;;12.90;99.90;;;;;;4847648;29;20081;-76
2023/01/12 13:27:59;;;;;;;11.82;2.60;;;13.10;99.90;;;;;;4845537;29;20104;-76
2023/01/12 13:30:28;;;;;;;13.43;2.50;;;13.00;99.90;;;;;;4845357;29;20407;-75
2023/01/12 13:32:54;;;;;;;10.95;2.25;;;13.00;99.90;;;;;;4861115;29;20375;-76
2023/01/12 13:35:33;;;;;;;13.52;2.25;;;13.10;99.90;;;;;;4845306;29;20109;-76
2023/01/12 13:38:25;;;;;;;17.02;2.92;;;13.00;99.90;;;;;;4860659;29;20048;-76
2023/01/12 13:41:00;;;;;;;15.35;2.25;;;12.90;99.90;;;;;;4860171;29;20087;-76
2023/01/12 13:43:30;;;;;;;12.75;2.47;;;12.90;99.90;;;;;;4859896;29;20057;-75